Terminal Aerodrome Forecast
Issued by NWS Melbourne, FL

Home | Current Version | Previous Version | Text Only | Print | Product List | Glossary On
Versions: 1 2 3 4 5 6 7 8 9 10 11 12
000
FTUS42 KMLB 221124
TAFDAB
TAF
KDAB 221124Z 2212/2312 VRB03KT P6SM VCSH FEW020 SCT045 SCT070
     FM221600 05011G16KT P6SM VCSH SCT030 BKN060
     FM230000 06007KT P6SM VCSH BKN035 BKN060=

USA.gov is the U.S. government's official web portal to all federal, state and local government web resources and services.